Long Beach, New York
Current Conditions -  °F | °C
As of 9:51 AM on Friday 24 Oct 2014 (Local Time) from KJFK Reporting Station
Broken Clouds Broken Clouds  
Wind Chill: 57°   Ceiling: 11000
Heat Index: 57°   Visibility: 10mi
Dew Point: 44°   Wind: 16mph
Humidity: 62%   Direction: 330°NNW
Pressure: 29.82"   Gusts: NA
Location:  40.59°N, 73.67°W
Report Text: KJFK 241351Z 33014KT 10SM SCT023 BKN110 BKN160 BKN250 14/07 A2982 RMK AO2 SLP096 T01390067
Loading
Personal Weather Stations






























Interactive Weather Map
Tropical Storm Tracking
New forecast layout! Learn more

10-Day Weather Forecast

Advertisements
Track Severe Weather on mobile